SUR4434 SBPA-SAEZ
Flight info
| Callsign | SUR4434 |
|---|---|
| Flight time | 1h 25m |
| Altitude | 38000 |
| Route | TOKAK UZ53 UMRUD UN741 PAPIX |
| Aircraft | A346/H-SDE2E3FGHIJ3J4J5M1RWXY/LB1D1 |
Departure
| Time | 2026-05-04 20:24 |
|---|---|
| Airport | Porto Alegre-Salgado Filho International Airport (SBPA) |
Arrival
| Time | 2026-05-04 21:49 |
|---|---|
| Airport | Ezeiza International Airport - Ministro Pistarini (SAEZ) |
| Time | Latitude | Longitude | Altitude | Speed | Heading |
|---|---|---|---|---|---|
| 2026-05-04 20:00 | -29.99091 | -51.17760 | 31 ft | 0 kts | 356° |
| 2026-05-04 20:12 | -29.99096 | -51.17760 | 31 ft | 2 kts | 358° |
| 2026-05-04 20:13 | -29.99111 | -51.17760 | 31 ft | 2 kts | 7° |
| 2026-05-04 20:13 | -29.99125 | -51.17764 | 31 ft | 2 kts | 15° |
| 2026-05-04 20:13 | -29.99139 | -51.17769 | 31 ft | 2 kts | 23° |
| 2026-05-04 20:13 | -29.99153 | -51.17777 | 31 ft | 2 kts | 31° |
| 2026-05-04 20:14 | -29.99165 | -51.17786 | 31 ft | 2 kts | 38° |
| 2026-05-04 20:14 | -29.99177 | -51.17797 | 31 ft | 2 kts | 38° |
| 2026-05-04 20:14 | -29.99190 | -51.17808 | 31 ft | 2 kts | 37° |
| 2026-05-04 20:14 | -29.99202 | -51.17818 | 31 ft | 2 kts | 37° |
| 2026-05-04 20:15 | -29.99214 | -51.17829 | 31 ft | 2 kts | 37° |
| 2026-05-04 20:15 | -29.99226 | -51.17840 | 31 ft | 2 kts | 37° |
| 2026-05-04 20:15 | -29.99238 | -51.17850 | 31 ft | 2 kts | 37° |
| 2026-05-04 20:15 | -29.99249 | -51.17861 | 31 ft | 2 kts | 45° |
| 2026-05-04 20:16 | -29.99259 | -51.17874 | 31 ft | 2 kts | 54° |
| 2026-05-04 20:16 | -29.99267 | -51.17889 | 31 ft | 2 kts | 62° |
| 2026-05-04 20:16 | -29.99273 | -51.17904 | 31 ft | 2 kts | 70° |
| 2026-05-04 20:16 | -29.99277 | -51.17921 | 31 ft | 2 kts | 78° |
| 2026-05-04 20:17 | -29.99279 | -51.17938 | 31 ft | 2 kts | 86° |
| 2026-05-04 20:17 | -29.99280 | -51.17948 | 31 ft | 1 kts | 91° |
| 2026-05-04 20:17 | -29.99280 | -51.17950 | 31 ft | 0 kts | 91° |
| 2026-05-04 20:18 | -29.99280 | -51.17941 | 31 ft | 3 kts | 91° |
| 2026-05-04 20:19 | -29.99281 | -51.17886 | 31 ft | 10 kts | 90° |
| 2026-05-04 20:19 | -29.99276 | -51.17786 | 31 ft | 13 kts | 83° |
| 2026-05-04 20:19 | -29.99263 | -51.17666 | 31 ft | 16 kts | 85° |
| 2026-05-04 20:19 | -29.99260 | -51.17530 | 31 ft | 17 kts | 90° |
| 2026-05-04 20:20 | -29.99262 | -51.17382 | 31 ft | 19 kts | 91° |
| 2026-05-04 20:20 | -29.99268 | -51.17220 | 31 ft | 20 kts | 92° |
| 2026-05-04 20:20 | -29.99272 | -51.17048 | 31 ft | 22 kts | 91° |
| 2026-05-04 20:20 | -29.99275 | -51.16861 | 31 ft | 23 kts | 91° |
| 2026-05-04 20:21 | -29.99278 | -51.16670 | 31 ft | 23 kts | 91° |
| 2026-05-04 20:21 | -29.99282 | -51.16489 | 31 ft | 23 kts | 91° |
| 2026-05-04 20:21 | -29.99300 | -51.16264 | 32 ft | 11 kts | 126° |
| 2026-05-04 20:22 | -29.99381 | -51.16232 | 33 ft | 14 kts | 176° |
| 2026-05-04 20:22 | -29.99469 | -51.16192 | 33 ft | 14 kts | 116° |
| 2026-05-04 20:22 | -29.99476 | -51.16076 | 33 ft | 9 kts | 77° |
| 2026-05-04 20:22 | -29.99454 | -51.16001 | 33 ft | 7 kts | 88° |
| 2026-05-04 20:23 | -29.99470 | -51.15978 | 33 ft | 2 kts | 198° |
| 2026-05-04 20:23 | -29.99476 | -51.15993 | 33 ft | 2 kts | 259° |
| 2026-05-04 20:23 | -29.99482 | -51.16271 | 33 ft | 75 kts | 273° |
| 2026-05-04 20:23 | -29.99461 | -51.17155 | 32 ft | 144 kts | 272° |
| 2026-05-04 20:24 | -29.99430 | -51.18507 | 243 ft | 181 kts | 273° |
| 2026-05-04 20:24 | -29.99369 | -51.19954 | 884 ft | 183 kts | 274° |
| 2026-05-04 20:24 | -29.99336 | -51.21422 | 1589 ft | 188 kts | 273° |
| 2026-05-04 20:24 | -29.99336 | -51.22916 | 2275 ft | 192 kts | 272° |
| 2026-05-04 20:25 | -29.99331 | -51.24514 | 2730 ft | 209 kts | 274° |
| 2026-05-04 20:25 | -29.99445 | -51.26243 | 3233 ft | 230 kts | 253° |
| 2026-05-04 20:25 | -30.00400 | -51.27775 | 4015 ft | 244 kts | 220° |
| 2026-05-04 20:25 | -30.01957 | -51.28596 | 4783 ft | 261 kts | 195° |
| 2026-05-04 20:26 | -30.03839 | -51.28730 | 5401 ft | 279 kts | 183° |
| 2026-05-04 20:26 | -30.05820 | -51.28747 | 6014 ft | 284 kts | 195° |
| 2026-05-04 20:26 | -30.07502 | -51.29684 | 6948 ft | 269 kts | 229° |
| 2026-05-04 20:26 | -30.08443 | -51.31464 | 7879 ft | 260 kts | 253° |
| 2026-05-04 20:27 | -30.09071 | -51.33413 | 8700 ft | 265 kts | 252° |
| 2026-05-04 20:27 | -30.09778 | -51.35386 | 9524 ft | 269 kts | 251° |
| 2026-05-04 20:27 | -30.10528 | -51.37357 | 10345 ft | 273 kts | 250° |
| 2026-05-04 20:27 | -30.11331 | -51.39402 | 10918 ft | 287 kts | 249° |
| 2026-05-04 20:28 | -30.12196 | -51.41554 | 11366 ft | 305 kts | 248° |
| 2026-05-04 20:28 | -30.13134 | -51.43848 | 11792 ft | 324 kts | 248° |
| 2026-05-04 20:28 | -30.14122 | -51.46241 | 12153 ft | 342 kts | 247° |
| 2026-05-04 20:28 | -30.15177 | -51.48780 | 12540 ft | 358 kts | 247° |
| 2026-05-04 20:29 | -30.16264 | -51.51388 | 13245 ft | 364 kts | 247° |
| 2026-05-04 20:29 | -30.17358 | -51.54005 | 14031 ft | 366 kts | 246° |
| 2026-05-04 20:29 | -30.18465 | -51.56659 | 14792 ft | 369 kts | 246° |
| 2026-05-04 20:29 | -30.19588 | -51.59349 | 15511 ft | 373 kts | 246° |
| 2026-05-04 20:30 | -30.20702 | -51.62020 | 16224 ft | 376 kts | 245° |
| 2026-05-04 20:30 | -30.21839 | -51.64750 | 16949 ft | 379 kts | 245° |
| 2026-05-04 20:30 | -30.22991 | -51.67515 | 17672 ft | 382 kts | 245° |
| 2026-05-04 20:30 | -30.24136 | -51.70266 | 18346 ft | 385 kts | 245° |
| 2026-05-04 20:31 | -30.25303 | -51.73068 | 19039 ft | 388 kts | 245° |
| 2026-05-04 20:31 | -30.26471 | -51.75877 | 19728 ft | 391 kts | 245° |
| 2026-05-04 20:31 | -30.27654 | -51.78724 | 20383 ft | 394 kts | 244° |
| 2026-05-04 20:31 | -30.28838 | -51.81574 | 21006 ft | 397 kts | 244° |
| 2026-05-04 20:32 | -30.30023 | -51.84428 | 21651 ft | 399 kts | 244° |
| 2026-05-04 20:32 | -30.31230 | -51.87342 | 22289 ft | 402 kts | 244° |
| 2026-05-04 20:32 | -30.32441 | -51.90267 | 22873 ft | 405 kts | 244° |
| 2026-05-04 20:32 | -30.33659 | -51.93211 | 23432 ft | 409 kts | 244° |
| 2026-05-04 20:33 | -30.34874 | -51.96152 | 23990 ft | 412 kts | 244° |
| 2026-05-04 20:33 | -30.36124 | -51.99176 | 24537 ft | 416 kts | 244° |
| 2026-05-04 20:33 | -30.37360 | -52.02171 | 25088 ft | 418 kts | 244° |
| 2026-05-04 20:33 | -30.38609 | -52.05197 | 25659 ft | 421 kts | 244° |
| 2026-05-04 20:34 | -30.39881 | -52.08284 | 26179 ft | 424 kts | 243° |
| 2026-05-04 20:34 | -30.41141 | -52.11346 | 26679 ft | 427 kts | 243° |
| 2026-05-04 20:34 | -30.42421 | -52.14455 | 27179 ft | 430 kts | 243° |
| 2026-05-04 20:34 | -30.43697 | -52.17567 | 27689 ft | 432 kts | 243° |
| 2026-05-04 20:35 | -30.45003 | -52.20745 | 28193 ft | 434 kts | 243° |
| 2026-05-04 20:35 | -30.46292 | -52.23891 | 28802 ft | 434 kts | 243° |
| 2026-05-04 20:35 | -30.47573 | -52.27014 | 29522 ft | 430 kts | 243° |
| 2026-05-04 20:35 | -30.48847 | -52.30126 | 30226 ft | 427 kts | 242° |
| 2026-05-04 20:36 | -30.50103 | -52.33196 | 30930 ft | 423 kts | 242° |
| 2026-05-04 20:36 | -30.51349 | -52.36244 | 31681 ft | 418 kts | 242° |
| 2026-05-04 20:36 | -30.52582 | -52.39266 | 32391 ft | 413 kts | 242° |
| 2026-05-04 20:36 | -30.53802 | -52.42257 | 33082 ft | 408 kts | 242° |
| 2026-05-04 20:37 | -30.55006 | -52.45206 | 33726 ft | 404 kts | 242° |
| 2026-05-04 20:37 | -30.56191 | -52.48104 | 34405 ft | 400 kts | 242° |
| 2026-05-04 20:37 | -30.57368 | -52.50986 | 35038 ft | 397 kts | 242° |
| 2026-05-04 20:37 | -30.58538 | -52.53863 | 35599 ft | 394 kts | 242° |
| 2026-05-04 20:38 | -30.59709 | -52.56737 | 36110 ft | 392 kts | 243° |
| 2026-05-04 20:38 | -30.60866 | -52.59580 | 36586 ft | 391 kts | 243° |
| 2026-05-04 20:38 | -30.62013 | -52.62410 | 36932 ft | 391 kts | 243° |
| 2026-05-04 20:38 | -30.63179 | -52.65290 | 37192 ft | 393 kts | 243° |
| 2026-05-04 20:39 | -30.64335 | -52.68140 | 37491 ft | 394 kts | 243° |
| 2026-05-04 20:39 | -30.65504 | -52.71030 | 37796 ft | 395 kts | 243° |
| 2026-05-04 20:39 | -30.66675 | -52.73925 | 37982 ft | 397 kts | 243° |
| 2026-05-04 20:39 | -30.67831 | -52.76786 | 37981 ft | 397 kts | 244° |
| 2026-05-04 20:40 | -30.70186 | -52.82596 | 37984 ft | 398 kts | 242° |
| 2026-05-04 20:40 | -30.72599 | -52.88380 | 37982 ft | 397 kts | 242° |
| 2026-05-04 20:41 | -30.74997 | -52.94143 | 37978 ft | 397 kts | 243° |
| 2026-05-04 20:41 | -30.77377 | -52.99872 | 37977 ft | 397 kts | 243° |
| 2026-05-04 20:42 | -30.79779 | -53.05673 | 37974 ft | 396 kts | 243° |
| 2026-05-04 20:42 | -30.82160 | -53.11440 | 37974 ft | 396 kts | 243° |
| 2026-05-04 20:43 | -30.84536 | -53.17197 | 37974 ft | 397 kts | 242° |
| 2026-05-04 20:43 | -30.86928 | -53.23001 | 37970 ft | 398 kts | 242° |
| 2026-05-04 20:44 | -30.89304 | -53.28771 | 37968 ft | 398 kts | 242° |
| 2026-05-04 20:44 | -30.91696 | -53.34563 | 37970 ft | 398 kts | 243° |
| 2026-05-04 20:45 | -30.94101 | -53.40401 | 37969 ft | 398 kts | 242° |
| 2026-05-04 20:45 | -30.96484 | -53.46201 | 37970 ft | 398 kts | 242° |
| 2026-05-04 20:46 | -30.98867 | -53.52008 | 37971 ft | 398 kts | 243° |
| 2026-05-04 20:46 | -31.01242 | -53.57814 | 37969 ft | 398 kts | 242° |
| 2026-05-04 20:47 | -31.03614 | -53.63614 | 37972 ft | 399 kts | 243° |
| 2026-05-04 20:47 | -31.06000 | -53.69461 | 37973 ft | 399 kts | 243° |
| 2026-05-04 20:48 | -31.08375 | -53.75288 | 37970 ft | 399 kts | 243° |
| 2026-05-04 20:48 | -31.10745 | -53.81114 | 37974 ft | 400 kts | 243° |
| 2026-05-04 20:49 | -31.13114 | -53.86948 | 37975 ft | 399 kts | 243° |
| 2026-05-04 20:49 | -31.15490 | -53.92804 | 37973 ft | 399 kts | 243° |
| 2026-05-04 20:50 | -31.17856 | -53.98647 | 37969 ft | 399 kts | 243° |
| 2026-05-04 20:50 | -31.20221 | -54.04501 | 37971 ft | 399 kts | 243° |
| 2026-05-04 20:51 | -31.22600 | -54.10393 | 37969 ft | 400 kts | 243° |
| 2026-05-04 20:51 | -31.24970 | -54.16277 | 37972 ft | 400 kts | 243° |
| 2026-05-04 20:52 | -31.27318 | -54.22116 | 37963 ft | 399 kts | 243° |
| 2026-05-04 20:52 | -31.29683 | -54.28003 | 37963 ft | 400 kts | 244° |
| 2026-05-04 20:53 | -31.32041 | -54.33883 | 37956 ft | 400 kts | 244° |
| 2026-05-04 20:53 | -31.34384 | -54.39743 | 37952 ft | 400 kts | 244° |
| 2026-05-04 20:54 | -31.36734 | -54.45626 | 37950 ft | 400 kts | 244° |
| 2026-05-04 20:54 | -31.39074 | -54.51496 | 37949 ft | 401 kts | 244° |
| 2026-05-04 20:55 | -31.41578 | -54.57316 | 37943 ft | 400 kts | 240° |
| 2026-05-04 20:55 | -31.44556 | -54.62806 | 37940 ft | 399 kts | 235° |
| 2026-05-04 20:56 | -31.47962 | -54.67883 | 37944 ft | 400 kts | 230° |
| 2026-05-04 20:56 | -31.51831 | -54.72577 | 37939 ft | 401 kts | 226° |
| 2026-05-04 20:57 | -31.55910 | -54.77013 | 37935 ft | 401 kts | 225° |
| 2026-05-04 20:57 | -31.60011 | -54.81453 | 37934 ft | 401 kts | 225° |
| 2026-05-04 20:58 | -31.64119 | -54.85895 | 37932 ft | 401 kts | 225° |
| 2026-05-04 20:58 | -31.68220 | -54.90329 | 37935 ft | 401 kts | 225° |
| 2026-05-04 20:59 | -31.72296 | -54.94741 | 37932 ft | 401 kts | 225° |
| 2026-05-04 20:59 | -31.76396 | -54.99184 | 37933 ft | 401 kts | 225° |
| 2026-05-04 21:00 | -31.80498 | -55.03634 | 37930 ft | 401 kts | 225° |
| 2026-05-04 21:00 | -31.84591 | -55.08084 | 37942 ft | 401 kts | 225° |
| 2026-05-04 21:01 | -31.88674 | -55.12524 | 37939 ft | 400 kts | 225° |
| 2026-05-04 21:01 | -31.92737 | -55.16946 | 37935 ft | 400 kts | 226° |
| 2026-05-04 21:02 | -31.96805 | -55.21386 | 37939 ft | 399 kts | 226° |
| 2026-05-04 21:02 | -32.00874 | -55.25831 | 37936 ft | 399 kts | 225° |
| 2026-05-04 21:03 | -32.04946 | -55.30280 | 37934 ft | 399 kts | 226° |
| 2026-05-04 21:03 | -32.09018 | -55.34740 | 37934 ft | 398 kts | 226° |
| 2026-05-04 21:04 | -32.13075 | -55.39187 | 37933 ft | 398 kts | 225° |
| 2026-05-04 21:04 | -32.17135 | -55.43640 | 37934 ft | 399 kts | 226° |
| 2026-05-04 21:05 | -32.21189 | -55.48098 | 37930 ft | 398 kts | 226° |
| 2026-05-04 21:05 | -32.25239 | -55.52551 | 37928 ft | 398 kts | 226° |
| 2026-05-04 21:06 | -32.29270 | -55.56993 | 37931 ft | 399 kts | 226° |
| 2026-05-04 21:06 | -32.33308 | -55.61449 | 37930 ft | 398 kts | 226° |
| 2026-05-04 21:07 | -32.37369 | -55.65935 | 37923 ft | 399 kts | 226° |
| 2026-05-04 21:07 | -32.41415 | -55.70409 | 37912 ft | 399 kts | 226° |
| 2026-05-04 21:08 | -32.45461 | -55.74889 | 37901 ft | 399 kts | 226° |
| 2026-05-04 21:08 | -32.49519 | -55.79390 | 37901 ft | 400 kts | 226° |
| 2026-05-04 21:09 | -32.53565 | -55.83883 | 37902 ft | 399 kts | 226° |
| 2026-05-04 21:09 | -32.57624 | -55.88396 | 37906 ft | 399 kts | 226° |
| 2026-05-04 21:10 | -32.61657 | -55.92885 | 37899 ft | 399 kts | 226° |
| 2026-05-04 21:10 | -32.65705 | -55.97395 | 37904 ft | 400 kts | 226° |
| 2026-05-04 21:11 | -32.69752 | -56.01915 | 37909 ft | 400 kts | 226° |
| 2026-05-04 21:11 | -32.73775 | -56.06413 | 37913 ft | 400 kts | 226° |
| 2026-05-04 21:12 | -32.77827 | -56.10945 | 37914 ft | 401 kts | 226° |
| 2026-05-04 21:12 | -32.81890 | -56.15500 | 37918 ft | 401 kts | 226° |
| 2026-05-04 21:13 | -32.85917 | -56.20016 | 37916 ft | 400 kts | 227° |
| 2026-05-04 21:13 | -32.89945 | -56.24547 | 37914 ft | 399 kts | 226° |
| 2026-05-04 21:14 | -32.93986 | -56.29096 | 37914 ft | 399 kts | 226° |
| 2026-05-04 21:14 | -32.98018 | -56.33637 | 37913 ft | 399 kts | 227° |
| 2026-05-04 21:15 | -33.02017 | -56.38162 | 37909 ft | 399 kts | 227° |
| 2026-05-04 21:15 | -33.06027 | -56.42710 | 37911 ft | 398 kts | 226° |
| 2026-05-04 21:16 | -33.10037 | -56.47268 | 37913 ft | 398 kts | 227° |
| 2026-05-04 21:16 | -33.14059 | -56.51847 | 37913 ft | 398 kts | 227° |
| 2026-05-04 21:17 | -33.18051 | -56.56396 | 37913 ft | 398 kts | 227° |
| 2026-05-04 21:17 | -33.22053 | -56.60947 | 37911 ft | 399 kts | 227° |
| 2026-05-04 21:18 | -33.26067 | -56.65521 | 37914 ft | 398 kts | 227° |
| 2026-05-04 21:18 | -33.30073 | -56.70094 | 37912 ft | 398 kts | 227° |
| 2026-05-04 21:19 | -33.34071 | -56.74663 | 37910 ft | 398 kts | 227° |
| 2026-05-04 21:19 | -33.38065 | -56.79237 | 37907 ft | 398 kts | 227° |
| 2026-05-04 21:20 | -33.42052 | -56.83810 | 37903 ft | 398 kts | 227° |
| 2026-05-04 21:20 | -33.46054 | -56.88405 | 37905 ft | 399 kts | 227° |
| 2026-05-04 21:21 | -33.50057 | -56.93007 | 37901 ft | 398 kts | 227° |
| 2026-05-04 21:21 | -33.54041 | -56.97591 | 37776 ft | 398 kts | 228° |
| 2026-05-04 21:22 | -33.56018 | -56.99872 | 37462 ft | 396 kts | 228° |
| 2026-05-04 21:22 | -33.58009 | -57.02168 | 37127 ft | 394 kts | 228° |
| 2026-05-04 21:22 | -33.59977 | -57.04440 | 36642 ft | 392 kts | 228° |
| 2026-05-04 21:22 | -33.61940 | -57.06706 | 35924 ft | 393 kts | 228° |
| 2026-05-04 21:23 | -33.63893 | -57.08967 | 35114 ft | 396 kts | 228° |
| 2026-05-04 21:23 | -33.65874 | -57.11258 | 34289 ft | 399 kts | 228° |
| 2026-05-04 21:23 | -33.67875 | -57.13575 | 33462 ft | 403 kts | 228° |
| 2026-05-04 21:23 | -33.69896 | -57.15922 | 32616 ft | 408 kts | 227° |
| 2026-05-04 21:24 | -33.71946 | -57.18301 | 31699 ft | 414 kts | 227° |
| 2026-05-04 21:24 | -33.74003 | -57.20689 | 30816 ft | 419 kts | 227° |
| 2026-05-04 21:24 | -33.76123 | -57.23150 | 29975 ft | 422 kts | 227° |
| 2026-05-04 21:24 | -33.78225 | -57.25590 | 29217 ft | 424 kts | 227° |
| 2026-05-04 21:25 | -33.80330 | -57.28035 | 28486 ft | 424 kts | 227° |
| 2026-05-04 21:25 | -33.82441 | -57.30489 | 27751 ft | 425 kts | 226° |
| 2026-05-04 21:25 | -33.84580 | -57.32979 | 27177 ft | 421 kts | 226° |
| 2026-05-04 21:25 | -33.86660 | -57.35400 | 26672 ft | 416 kts | 227° |
| 2026-05-04 21:26 | -33.88731 | -57.37813 | 26169 ft | 412 kts | 227° |
| 2026-05-04 21:26 | -33.90749 | -57.40164 | 25707 ft | 407 kts | 226° |
| 2026-05-04 21:26 | -33.92779 | -57.42529 | 25249 ft | 402 kts | 226° |
| 2026-05-04 21:26 | -33.94764 | -57.44842 | 24799 ft | 398 kts | 227° |
| 2026-05-04 21:27 | -33.96746 | -57.47156 | 24356 ft | 394 kts | 227° |
| 2026-05-04 21:27 | -33.98692 | -57.49432 | 23931 ft | 390 kts | 227° |
| 2026-05-04 21:27 | -34.00623 | -57.51690 | 23509 ft | 386 kts | 227° |
| 2026-05-04 21:27 | -34.02542 | -57.53936 | 23110 ft | 382 kts | 227° |
| 2026-05-04 21:28 | -34.04443 | -57.56164 | 22736 ft | 379 kts | 227° |
| 2026-05-04 21:28 | -34.06305 | -57.58349 | 22375 ft | 376 kts | 227° |
| 2026-05-04 21:28 | -34.08175 | -57.60544 | 22012 ft | 374 kts | 227° |
| 2026-05-04 21:28 | -34.10045 | -57.62739 | 21649 ft | 371 kts | 227° |
| 2026-05-04 21:29 | -34.11868 | -57.64881 | 21294 ft | 370 kts | 226° |
| 2026-05-04 21:29 | -34.13714 | -57.67053 | 20932 ft | 367 kts | 227° |
| 2026-05-04 21:29 | -34.15545 | -57.69209 | 20569 ft | 365 kts | 227° |
| 2026-05-04 21:29 | -34.17342 | -57.71323 | 20206 ft | 363 kts | 227° |
| 2026-05-04 21:30 | -34.19159 | -57.73463 | 19856 ft | 361 kts | 227° |
| 2026-05-04 21:30 | -34.20934 | -57.75556 | 19499 ft | 359 kts | 227° |
| 2026-05-04 21:30 | -34.22717 | -57.77658 | 19133 ft | 358 kts | 227° |
| 2026-05-04 21:30 | -34.24500 | -57.79761 | 18781 ft | 356 kts | 227° |
| 2026-05-04 21:31 | -34.28001 | -57.83898 | 18085 ft | 353 kts | 227° |
| 2026-05-04 21:31 | -34.29746 | -57.85963 | 17709 ft | 351 kts | 227° |
| 2026-05-04 21:31 | -34.31495 | -57.88032 | 17337 ft | 349 kts | 227° |
| 2026-05-04 21:32 | -34.33222 | -57.90077 | 17015 ft | 349 kts | 227° |
| 2026-05-04 21:32 | -34.34961 | -57.92138 | 16660 ft | 347 kts | 227° |
| 2026-05-04 21:32 | -34.36669 | -57.94164 | 16344 ft | 346 kts | 227° |
| 2026-05-04 21:32 | -34.38099 | -57.96458 | 15974 ft | 342 kts | 244° |
| 2026-05-04 21:33 | -34.39106 | -57.99041 | 15656 ft | 341 kts | 245° |
| 2026-05-04 21:33 | -34.40125 | -58.01635 | 15328 ft | 341 kts | 245° |
| 2026-05-04 21:33 | -34.41160 | -58.04221 | 14994 ft | 340 kts | 245° |
| 2026-05-04 21:33 | -34.42193 | -58.06773 | 14667 ft | 340 kts | 244° |
| 2026-05-04 21:34 | -34.43242 | -58.09343 | 14331 ft | 339 kts | 244° |
| 2026-05-04 21:34 | -34.44294 | -58.11912 | 13958 ft | 350 kts | 244° |
| 2026-05-04 21:34 | -34.45394 | -58.14590 | 13627 ft | 356 kts | 244° |
| 2026-05-04 21:34 | -34.46505 | -58.17286 | 13342 ft | 357 kts | 244° |
| 2026-05-04 21:35 | -34.47604 | -58.19955 | 13001 ft | 354 kts | 245° |
| 2026-05-04 21:35 | -34.48700 | -58.22619 | 12530 ft | 351 kts | 245° |
| 2026-05-04 21:35 | -34.49788 | -58.25264 | 12106 ft | 349 kts | 245° |
| 2026-05-04 21:35 | -34.50859 | -58.27867 | 11650 ft | 347 kts | 245° |
| 2026-05-04 21:36 | -34.51938 | -58.30493 | 11188 ft | 345 kts | 245° |
| 2026-05-04 21:36 | -34.53004 | -58.33087 | 10754 ft | 342 kts | 245° |
| 2026-05-04 21:36 | -34.54055 | -58.35646 | 10561 ft | 331 kts | 245° |
| 2026-05-04 21:36 | -34.55065 | -58.38108 | 10461 ft | 318 kts | 245° |
| 2026-05-04 21:37 | -34.56045 | -58.40496 | 10349 ft | 305 kts | 245° |
| 2026-05-04 21:37 | -34.56968 | -58.42746 | 10240 ft | 293 kts | 245° |
| 2026-05-04 21:37 | -34.57868 | -58.44945 | 10134 ft | 282 kts | 245° |
| 2026-05-04 21:37 | -34.58721 | -58.47031 | 10037 ft | 270 kts | 245° |
| 2026-05-04 21:38 | -34.59539 | -58.49034 | 9950 ft | 261 kts | 245° |
| 2026-05-04 21:38 | -34.60344 | -58.51005 | 9720 ft | 260 kts | 245° |
| 2026-05-04 21:38 | -34.61155 | -58.52993 | 9380 ft | 261 kts | 245° |
| 2026-05-04 21:38 | -34.61961 | -58.54968 | 9066 ft | 260 kts | 245° |
| 2026-05-04 21:39 | -34.62763 | -58.56933 | 8759 ft | 259 kts | 246° |
| 2026-05-04 21:39 | -34.63566 | -58.58905 | 8441 ft | 259 kts | 245° |
| 2026-05-04 21:39 | -34.64364 | -58.60863 | 8133 ft | 259 kts | 246° |
| 2026-05-04 21:39 | -34.65169 | -58.62840 | 7831 ft | 258 kts | 246° |
| 2026-05-04 21:40 | -34.65965 | -58.64796 | 7532 ft | 257 kts | 246° |
| 2026-05-04 21:40 | -34.66759 | -58.66747 | 7235 ft | 256 kts | 247° |
| 2026-05-04 21:40 | -34.67551 | -58.68697 | 6938 ft | 256 kts | 247° |
| 2026-05-04 21:40 | -34.68344 | -58.70651 | 6638 ft | 255 kts | 247° |
| 2026-05-04 21:41 | -34.69129 | -58.72584 | 6342 ft | 255 kts | 247° |
| 2026-05-04 21:41 | -34.69918 | -58.74530 | 6046 ft | 255 kts | 247° |
| 2026-05-04 21:41 | -34.70695 | -58.76445 | 5756 ft | 255 kts | 247° |
| 2026-05-04 21:41 | -34.71480 | -58.78384 | 5467 ft | 254 kts | 247° |
| 2026-05-04 21:42 | -34.72264 | -58.80324 | 5181 ft | 254 kts | 247° |
| 2026-05-04 21:42 | -34.73037 | -58.82236 | 4905 ft | 254 kts | 247° |
| 2026-05-04 21:42 | -34.73813 | -58.84152 | 4708 ft | 249 kts | 247° |
| 2026-05-04 21:42 | -34.74569 | -58.86015 | 4604 ft | 239 kts | 247° |
| 2026-05-04 21:43 | -34.75390 | -58.87722 | 4489 ft | 233 kts | 228° |
| 2026-05-04 21:43 | -34.76807 | -58.88655 | 4366 ft | 233 kts | 192° |
| 2026-05-04 21:43 | -34.78429 | -58.88470 | 4096 ft | 239 kts | 156° |
| 2026-05-04 21:43 | -34.79694 | -58.87226 | 3870 ft | 237 kts | 121° |
| 2026-05-04 21:44 | -34.80187 | -58.85376 | 3649 ft | 228 kts | 88° |
| 2026-05-04 21:44 | -34.79780 | -58.83533 | 3375 ft | 224 kts | 57° |
| 2026-05-04 21:44 | -34.78930 | -58.81999 | 3137 ft | 217 kts | 51° |
| 2026-05-04 21:44 | -34.78076 | -58.80517 | 2955 ft | 209 kts | 53° |
| 2026-05-04 21:45 | -34.77635 | -58.78879 | 2797 ft | 205 kts | 87° |
| 2026-05-04 21:45 | -34.77840 | -58.77192 | 2704 ft | 201 kts | 102° |
| 2026-05-04 21:45 | -34.78217 | -58.75547 | 2575 ft | 201 kts | 103° |
| 2026-05-04 21:45 | -34.78581 | -58.73904 | 2351 ft | 200 kts | 102° |
| 2026-05-04 21:46 | -34.78902 | -58.72274 | 2221 ft | 197 kts | 100° |
| 2026-05-04 21:46 | -34.79198 | -58.70631 | 2219 ft | 198 kts | 99° |
| 2026-05-04 21:46 | -34.79472 | -58.69003 | 2216 ft | 197 kts | 98° |
| 2026-05-04 21:46 | -34.79779 | -58.67364 | 2100 ft | 194 kts | 101° |
| 2026-05-04 21:47 | -34.80068 | -58.65796 | 1845 ft | 189 kts | 100° |
| 2026-05-04 21:47 | -34.80331 | -58.64245 | 1553 ft | 183 kts | 98° |
| 2026-05-04 21:47 | -34.80568 | -58.62754 | 1204 ft | 178 kts | 98° |
| 2026-05-04 21:47 | -34.80829 | -58.61296 | 840 ft | 173 kts | 102° |
| 2026-05-04 21:48 | -34.81117 | -58.59920 | 627 ft | 163 kts | 100° |
| 2026-05-04 21:48 | -34.81323 | -58.58573 | 434 ft | 161 kts | 99° |
| 2026-05-04 21:48 | -34.81551 | -58.57246 | 314 ft | 160 kts | 101° |
| 2026-05-04 21:48 | -34.81800 | -58.55924 | 166 ft | 159 kts | 101° |
| 2026-05-04 21:49 | -34.82032 | -58.54631 | 79 ft | 139 kts | 101° |
| 2026-05-04 21:49 | -34.82186 | -58.53740 | 79 ft | 75 kts | 103° |
| 2026-05-04 21:49 | -34.82265 | -58.53303 | 79 ft | 47 kts | 102° |
| 2026-05-04 21:49 | -34.82325 | -58.52969 | 79 ft | 17 kts | 103° |
| 2026-05-04 21:50 | -34.82310 | -58.52890 | 79 ft | 3 kts | 9° |
| 2026-05-04 21:50 | -34.82273 | -58.52896 | 79 ft | 7 kts | 345° |
| 2026-05-04 21:50 | -34.82196 | -58.52923 | 79 ft | 17 kts | 343° |
| 2026-05-04 21:50 | -34.82063 | -58.52978 | 79 ft | 18 kts | 324° |
| 2026-05-04 21:51 | -34.82017 | -58.53082 | 79 ft | 13 kts | 288° |
| 2026-05-04 21:51 | -34.81988 | -58.53204 | 79 ft | 16 kts | 284° |
| 2026-05-04 21:51 | -34.81960 | -58.53344 | 79 ft | 18 kts | 283° |
| 2026-05-04 21:51 | -34.81929 | -58.53498 | 79 ft | 19 kts | 284° |
| 2026-05-04 21:52 | -34.81903 | -58.53607 | 79 ft | 7 kts | 311° |
| 2026-05-04 21:52 | -34.81819 | -58.53682 | 79 ft | 21 kts | 332° |
| 2026-05-04 21:52 | -34.81718 | -58.53777 | 79 ft | 17 kts | 297° |
| 2026-05-04 21:52 | -34.81735 | -58.53914 | 79 ft | 17 kts | 242° |
| 2026-05-04 21:53 | -34.81789 | -58.54056 | 79 ft | 19 kts | 259° |
| 2026-05-04 21:53 | -34.81781 | -58.54163 | 79 ft | 9 kts | 309° |
| 2026-05-04 21:53 | -34.81719 | -58.54175 | 79 ft | 11 kts | 8° |
| 2026-05-04 21:53 | -34.81691 | -58.54169 | 79 ft | 0 kts | 11° |